Time;durP1;ratioP1;P1;durP2;ratioP2;P2;SDS_P1;SDS_P2;PMS_P1;PMS_P2;Temp;Humidity;BMP_temperature;BMP_pressure;BME280_temperature;BME280_humidity;BME280_pressure;Samples;Min_cycle;Max_cycle;Signal;HPM_P1;HPM_P2
2020/12/21 00:01:54;;;;;;;46.03;19.88;;;9.00;99.90;;;;;;5006848;28;20050;-69
2020/12/21 00:04:21;;;;;;;41.13;19.42;;;9.00;99.90;;;;;;5003824;28;20054;-68
2020/12/21 00:06:57;;;;;;;41.55;18.92;;;9.00;99.90;;;;;;5002549;28;20139;-69
2020/12/21 00:09:24;;;;;;;47.20;19.10;;;8.90;99.90;;;;;;5001501;28;20050;-70
2020/12/21 00:11:51;;;;;;;46.42;19.52;;;8.90;99.90;;;;;;5001413;28;20116;-68
2020/12/21 00:14:18;;;;;;;43.92;18.75;;;9.00;99.90;;;;;;5001941;28;20058;-68
2020/12/21 00:16:50;;;;;;;44.05;19.48;;;9.00;99.90;;;;;;4999125;28;20054;-68
2020/12/21 00:19:21;;;;;;;42.85;19.30;;;9.00;99.90;;;;;;5004325;28;20469;-71
2020/12/21 00:21:52;;;;;;;41.92;18.77;;;9.00;99.90;;;;;;5004629;28;20046;-73
2020/12/21 00:24:20;;;;;;;38.83;17.92;;;9.00;99.90;;;;;;5005986;28;20054;-73
2020/12/21 00:26:51;;;;;;;42.75;18.80;;;9.00;99.90;;;;;;5001242;28;20136;-68
2020/12/21 00:29:20;;;;;;;42.25;18.48;;;8.90;99.90;;;;;;4996574;28;20055;-69
2020/12/21 00:31:47;;;;;;;37.95;17.63;;;9.00;99.90;;;;;;5006181;28;20111;-69
2020/12/21 00:34:15;;;;;;;39.72;18.52;;;9.00;99.90;;;;;;4999072;28;20501;-68
2020/12/21 00:36:43;;;;;;;34.33;17.48;;;9.00;99.90;;;;;;5000205;28;20485;-68
2020/12/21 00:39:11;;;;;;;42.30;17.35;;;9.00;99.90;;;;;;5001298;28;20489;-68
2020/12/21 00:41:38;;;;;;;39.85;17.38;;;9.00;99.90;;;;;;4986465;28;20050;-69
2020/12/21 00:44:05;;;;;;;39.92;17.70;;;8.90;99.90;;;;;;5003725;28;20108;-68
2020/12/21 00:46:32;;;;;;;38.40;17.67;;;9.00;99.90;;;;;;5001629;28;20092;-68
2020/12/21 00:49:00;;;;;;;43.13;17.63;;;8.90;99.90;;;;;;5008093;28;20685;-68
2020/12/21 00:51:28;;;;;;;40.15;16.63;;;8.90;99.90;;;;;;5003031;28;20134;-69
2020/12/21 00:53:54;;;;;;;35.60;15.73;;;8.90;99.90;;;;;;5009963;28;20049;-68
2020/12/21 00:56:22;;;;;;;33.85;16.05;;;8.90;99.90;;;;;;5005032;28;20050;-68
2020/12/21 00:58:49;;;;;;;34.42;15.57;;;9.00;99.90;;;;;;5001868;28;20062;-69
2020/12/21 01:01:20;;;;;;;37.92;16.65;;;8.90;99.90;;;;;;5006072;28;20058;-69
2020/12/21 01:03:54;;;;;;;33.45;14.75;;;8.90;99.90;;;;;;5005079;28;20073;-68
2020/12/21 01:06:20;;;;;;;34.38;15.18;;;8.80;99.90;;;;;;5008994;28;20077;-68
2020/12/21 01:08:58;;;;;;;25.48;12.40;;;8.80;99.90;;;;;;5007737;28;20046;-69
2020/12/21 01:11:28;;;;;;;30.85;14.50;;;8.70;99.90;;;;;;5003066;28;20050;-69
2020/12/21 01:13:55;;;;;;;30.75;13.35;;;8.70;99.90;;;;;;5004749;28;20108;-69
2020/12/21 01:16:22;;;;;;;32.65;15.00;;;8.60;99.90;;;;;;4984014;28;20212;-69
2020/12/21 01:18:49;;;;;;;34.17;16.17;;;8.60;99.90;;;;;;5007125;28;20549;-68
2020/12/21 01:21:27;;;;;;;27.95;14.57;;;8.60;99.90;;;;;;5004151;28;20061;-69
2020/12/21 01:23:57;;;;;;;29.08;14.63;;;8.60;99.90;;;;;;5007161;28;20065;-68
2020/12/21 01:26:24;;;;;;;;;;;8.70;99.90;;;;;;5003298;28;20097;-67
2020/12/21 01:28:52;;;;;;;31.02;14.35;;;8.60;99.90;;;;;;5004021;28;20305;-68
2020/12/21 01:31:20;;;;;;;30.60;14.75;;;8.60;99.90;;;;;;5007965;28;20080;-71
2020/12/21 01:33:48;;;;;;;33.58;15.20;;;8.50;99.90;;;;;;5003625;28;20128;-68
2020/12/21 01:36:16;;;;;;;31.60;14.30;;;8.50;99.90;;;;;;5003095;28;20054;-69
2020/12/21 01:38:44;;;;;;;27.58;13.65;;;8.50;99.90;;;;;;5009870;28;20045;-68
2020/12/21 01:41:10;;;;;;;26.63;13.95;;;8.50;99.90;;;;;;5005031;28;20104;-70
2020/12/21 01:43:36;;;;;;;36.35;14.40;;;8.40;99.90;;;;;;5003868;28;20050;-68
2020/12/21 01:46:12;;;;;;;28.30;13.30;;;8.40;99.90;;;;;;5005196;28;20042;-69
2020/12/21 01:48:39;;;;;;;26.65;13.00;;;8.50;99.90;;;;;;5002456;28;20106;-69
2020/12/21 01:51:06;;;;;;;30.90;14.10;;;8.50;99.90;;;;;;4991674;28;20046;-68
2020/12/21 01:53:35;;;;;;;30.42;14.13;;;8.50;99.90;;;;;;5005738;28;20128;-69
2020/12/21 01:56:04;;;;;;;27.65;13.50;;;8.40;99.90;;;;;;5005892;28;20137;-69
2020/12/21 01:58:31;;;;;;;25.95;13.25;;;8.50;99.90;;;;;;4983361;28;20393;-68
2020/12/21 02:01:01;;;;;;;27.60;13.10;;;8.40;99.90;;;;;;5005349;28;20053;-69
2020/12/21 02:03:28;;;;;;;27.42;13.45;;;8.40;99.90;;;;;;5004832;28;20149;-68
2020/12/21 02:05:55;;;;;;;24.58;13.38;;;8.40;99.90;;;;;;5009044;28;20470;-68
2020/12/21 02:08:21;;;;;;;34.40;14.20;;;8.40;99.90;;;;;;4990318;28;20051;-67
2020/12/21 02:10:48;;;;;;;29.08;13.40;;;8.40;99.90;;;;;;4984824;28;20058;-68
2020/12/21 02:13:14;;;;;;;29.30;13.18;;;8.40;99.90;;;;;;5002896;28;20078;-68
2020/12/21 02:15:41;;;;;;;25.83;12.40;;;8.40;99.90;;;;;;5005611;28;20049;-68
2020/12/21 02:18:07;;;;;;;26.85;13.38;;;8.40;99.90;;;;;;5003341;28;20138;-69
2020/12/21 02:20:33;;;;;;;27.00;13.35;;;8.40;99.90;;;;;;5000279;28;20474;-69
2020/12/21 02:23:00;;;;;;;27.05;12.95;;;8.30;99.90;;;;;;5007794;28;20065;-70
2020/12/21 02:25:26;;;;;;;31.38;13.15;;;8.30;99.90;;;;;;5001190;28;20457;-70
2020/12/21 02:27:52;;;;;;;30.38;14.25;;;8.40;99.90;;;;;;4998507;28;20050;-68
2020/12/21 02:30:19;;;;;;;27.55;13.95;;;8.40;99.90;;;;;;4987158;28;20058;-69
2020/12/21 02:32:46;;;;;;;36.33;17.20;;;8.30;99.90;;;;;;5006512;28;20078;-68
2020/12/21 02:35:12;;;;;;;42.28;18.20;;;8.20;99.90;;;;;;4984918;28;20050;-68
2020/12/21 02:37:39;;;;;;;45.72;19.27;;;8.10;99.90;;;;;;5004228;28;20141;-68
2020/12/21 02:40:06;;;;;;;43.22;19.33;;;8.00;99.90;;;;;;5004618;28;20041;-67
2020/12/21 02:42:33;;;;;;;40.53;17.35;;;8.10;99.90;;;;;;5008921;28;20292;-69
2020/12/21 02:45:00;;;;;;;36.58;17.65;;;8.10;99.90;;;;;;5007388;28;20440;-67
2020/12/21 02:47:26;;;;;;;36.50;16.20;;;8.00;99.90;;;;;;5009676;28;20481;-68
2020/12/21 02:49:52;;;;;;;31.85;16.05;;;8.00;99.90;;;;;;4996062;28;20046;-68
2020/12/21 02:52:19;;;;;;;37.38;16.27;;;8.00;99.90;;;;;;5004885;28;20061;-68
2020/12/21 02:54:46;;;;;;;30.90;15.18;;;8.00;99.90;;;;;;5011795;28;20077;-69
2020/12/21 02:57:13;;;;;;;32.65;15.40;;;8.00;99.90;;;;;;5012178;28;20155;-68
2020/12/21 02:59:41;;;;;;;31.73;14.73;;;8.00;99.90;;;;;;4991791;28;20057;-67
2020/12/21 03:02:08;;;;;;;28.17;14.63;;;8.00;99.90;;;;;;5005026;28;20097;-68
2020/12/21 03:04:34;;;;;;;28.95;13.68;;;8.10;99.90;;;;;;5007111;28;20444;-68
2020/12/21 03:07:01;;;;;;;29.35;14.02;;;8.10;99.90;;;;;;5006727;28;20050;-69
2020/12/21 03:09:28;;;;;;;30.08;14.90;;;8.10;99.90;;;;;;5011254;28;20062;-68
2020/12/21 03:11:55;;;;;;;32.28;13.95;;;8.00;99.90;;;;;;5008689;28;20143;-68
2020/12/21 03:14:21;;;;;;;27.50;14.20;;;8.10;99.90;;;;;;5013214;28;20085;-68
2020/12/21 03:16:47;;;;;;;33.65;14.60;;;8.20;99.90;;;;;;5007889;28;20045;-69
2020/12/21 03:19:14;;;;;;;30.92;13.85;;;8.10;99.90;;;;;;5004020;28;20117;-68
2020/12/21 03:21:41;;;;;;;28.95;13.73;;;8.20;99.90;;;;;;4993978;28;20119;-68
2020/12/21 03:24:07;;;;;;;28.60;13.98;;;8.20;99.90;;;;;;5006901;28;20473;-68
2020/12/21 03:26:34;;;;;;;27.73;12.95;;;8.20;99.90;;;;;;5013404;28;20057;-68
2020/12/21 03:29:01;;;;;;;26.23;13.55;;;8.20;99.90;;;;;;5006673;28;20456;-67
2020/12/21 03:31:28;;;;;;;24.42;13.30;;;8.20;99.90;;;;;;5004076;28;20058;-69
2020/12/21 03:33:54;;;;;;;29.90;13.93;;;8.20;99.90;;;;;;5010335;28;20054;-69
2020/12/21 03:36:21;;;;;;;29.83;13.98;;;8.10;99.90;;;;;;5006414;28;20050;-69
2020/12/21 03:38:48;;;;;;;26.20;13.13;;;8.20;99.90;;;;;;5007397;28;20137;-69
2020/12/21 03:41:14;;;;;;;23.95;13.05;;;8.20;99.90;;;;;;5010206;28;20107;-68
2020/12/21 03:43:41;;;;;;;25.17;12.63;;;8.10;99.90;;;;;;4999157;28;20111;-68
2020/12/21 03:46:08;;;;;;;29.90;13.63;;;8.10;99.90;;;;;;5008549;28;20073;-68
2020/12/21 03:48:34;;;;;;;29.60;14.15;;;8.20;99.90;;;;;;5004313;28;20054;-67
2020/12/21 03:51:00;;;;;;;25.50;13.80;;;8.10;99.90;;;;;;5008242;28;20057;-68
2020/12/21 03:53:28;;;;;;;32.17;14.73;;;8.10;99.90;;;;;;5010086;28;20057;-69
2020/12/21 03:55:55;;;;;;;28.00;13.88;;;8.20;99.90;;;;;;5005837;28;20100;-68
2020/12/21 03:58:21;;;;;;;25.98;13.57;;;8.10;99.90;;;;;;5012281;28;20098;-68
2020/12/21 04:00:47;;;;;;;25.42;13.90;;;8.20;99.90;;;;;;5006316;28;20041;-68
2020/12/21 04:03:14;;;;;;;28.25;14.77;;;8.10;99.90;;;;;;5004550;28;20054;-68
2020/12/21 04:05:46;;;;;;;30.75;15.07;;;8.10;99.90;;;;;;5008409;28;20046;-68
2020/12/21 04:08:13;;;;;;;33.60;15.70;;;8.10;99.90;;;;;;5008011;28;20104;-68
2020/12/21 04:10:40;;;;;;;33.15;16.38;;;8.00;99.90;;;;;;5011192;28;20445;-68
2020/12/21 04:13:06;;;;;;;28.45;14.88;;;8.00;99.90;;;;;;5009297;28;20057;-68
2020/12/21 04:15:33;;;;;;;32.42;15.63;;;8.00;99.90;;;;;;5008756;28;20049;-69
2020/12/21 04:18:00;;;;;;;32.45;15.55;;;8.00;99.90;;;;;;5012751;28;20112;-68
2020/12/21 04:20:26;;;;;;;31.20;15.57;;;8.00;99.90;;;;;;5007718;28;20061;-68
2020/12/21 04:22:53;;;;;;;28.73;16.10;;;8.00;99.90;;;;;;5008068;28;20053;-68
2020/12/21 04:25:19;;;;;;;28.90;14.65;;;7.90;99.90;;;;;;5010948;28;20100;-70
2020/12/21 04:27:45;;;;;;;30.15;15.80;;;7.90;99.90;;;;;;5009680;28;20045;-69
2020/12/21 04:30:12;;;;;;;28.90;15.63;;;8.00;99.90;;;;;;4993626;28;20092;-69
2020/12/21 04:32:38;;;;;;;31.25;14.65;;;7.90;99.90;;;;;;5007592;28;20104;-68
2020/12/21 04:35:05;;;;;;;31.77;15.43;;;7.90;99.90;;;;;;5004268;28;20089;-68
2020/12/21 04:37:33;;;;;;;31.50;15.18;;;7.90;99.90;;;;;;5006048;28;20129;-68
2020/12/21 04:40:00;;;;;;;28.38;14.57;;;7.80;99.90;;;;;;5005930;28;20148;-69
2020/12/21 04:42:27;;;;;;;28.55;15.32;;;7.80;99.90;;;;;;5012142;28;20050;-69
2020/12/21 04:44:53;;;;;;;30.95;16.35;;;7.90;99.90;;;;;;5009434;28;20058;-68
2020/12/21 04:47:20;;;;;;;30.85;16.13;;;7.80;99.90;;;;;;5008050;28;20054;-68
2020/12/21 04:49:47;;;;;;;27.40;15.25;;;7.70;99.90;;;;;;5010338;28;20469;-68
2020/12/21 04:52:14;;;;;;;33.47;15.77;;;7.70;99.90;;;;;;5006937;28;20046;-68
2020/12/21 04:54:41;;;;;;;29.60;15.27;;;7.70;99.90;;;;;;5009291;28;20041;-69
2020/12/21 04:57:08;;;;;;;30.83;15.23;;;7.70;99.90;;;;;;5006962;28;20196;-68
2020/12/21 04:59:34;;;;;;;26.50;14.82;;;7.70;99.90;;;;;;5008755;28;20050;-68
2020/12/21 05:02:04;;;;;;;30.20;15.45;;;7.70;99.90;;;;;;5009238;28;20100;-68
2020/12/21 05:04:30;;;;;;;29.85;15.68;;;7.70;99.90;;;;;;5008628;28;20058;-69
2020/12/21 05:06:57;;;;;;;33.08;17.08;;;7.70;99.90;;;;;;5012005;28;20054;-69
2020/12/21 05:09:24;;;;;;;29.52;16.17;;;7.70;99.90;;;;;;5009484;28;20096;-69
2020/12/21 05:12:07;;;;;;;33.88;16.52;;;7.70;99.90;;;;;;5007450;28;20050;-69
2020/12/21 05:14:35;;;;;;;34.17;16.52;;;7.70;99.90;;;;;;5010527;28;20462;-68
2020/12/21 05:17:15;;;;;;;36.15;16.35;;;7.70;99.90;;;;;;5006596;28;20041;-68
2020/12/21 05:19:43;;;;;;;32.22;16.30;;;7.70;99.90;;;;;;5005214;28;20529;-68
2020/12/21 05:22:13;;;;;;;30.45;16.50;;;7.80;99.90;;;;;;5010993;28;20042;-68
2020/12/21 05:24:40;;;;;;;32.15;17.45;;;7.80;99.90;;;;;;5005976;28;20486;-68
2020/12/21 05:27:18;;;;;;;36.78;16.25;;;7.80;99.90;;;;;;5008151;28;20115;-68
2020/12/21 05:29:55;;;;;;;33.75;18.40;;;7.70;99.90;;;;;;5010412;28;20058;-68
2020/12/21 05:32:22;;;;;;;32.33;17.40;;;7.70;99.90;;;;;;5004718;28;20092;-68
2020/12/21 05:34:48;;;;;;;36.08;16.70;;;7.70;99.90;;;;;;5010239;28;20049;-68
2020/12/21 05:37:20;;;;;;;35.63;18.08;;;7.70;99.90;;;;;;5009400;28;20117;-68
2020/12/21 05:39:54;;;;;;;38.13;17.58;;;7.70;99.90;;;;;;5006526;28;20041;-68
2020/12/21 05:42:22;;;;;;;38.08;17.05;;;7.70;99.90;;;;;;5011117;28;20077;-68
2020/12/21 05:45:00;;;;;;;36.10;17.95;;;7.60;99.90;;;;;;5006276;28;20049;-67
2020/12/21 05:47:27;;;;;;;31.23;17.02;;;7.60;99.90;;;;;;5004436;28;20183;-68
2020/12/21 05:49:58;;;;;;;35.80;17.40;;;7.70;99.90;;;;;;4994107;28;20075;-67
2020/12/21 05:52:29;;;;;;;34.50;17.77;;;7.70;99.90;;;;;;5005737;28;20093;-67
2020/12/21 05:54:56;;;;;;;32.10;17.08;;;7.70;99.90;;;;;;4993291;28;20558;-68
2020/12/21 05:57:27;;;;;;;36.60;17.70;;;7.80;99.90;;;;;;5008986;28;20121;-67
2020/12/21 05:59:54;;;;;;;34.78;16.52;;;7.80;99.90;;;;;;5007511;28;20143;-69
2020/12/21 06:02:21;;;;;;;31.77;17.00;;;7.70;99.90;;;;;;5009788;28;20046;-68
2020/12/21 06:04:49;;;;;;;38.05;17.00;;;7.70;99.90;;;;;;5005283;28;20054;-68
2020/12/21 06:07:23;;;;;;;37.38;17.15;;;7.60;99.90;;;;;;5007180;28;20097;-68
2020/12/21 06:09:52;;;;;;;41.97;20.92;;;7.60;99.90;;;;;;5005914;28;20045;-68
2020/12/21 06:12:21;;;;;;;44.70;20.70;;;7.60;99.90;;;;;;5007927;28;20050;-68
2020/12/21 06:14:50;;;;;;;47.30;24.05;;;7.60;99.90;;;;;;5006041;28;20073;-69
2020/12/21 06:17:16;;;;;;;48.67;24.23;;;7.50;99.90;;;;;;4976668;28;20053;-69
2020/12/21 06:19:43;;;;;;;54.38;24.50;;;7.60;99.90;;;;;;5006763;28;20150;-68
2020/12/21 06:22:09;;;;;;;51.65;24.13;;;7.60;99.90;;;;;;5013266;28;20042;-68
2020/12/21 06:24:38;;;;;;;51.75;23.75;;;7.60;99.90;;;;;;5011258;28;20367;-69
2020/12/21 06:27:22;;;;;;;56.22;23.17;;;7.60;99.90;;;;;;5007053;28;20053;-69
2020/12/21 06:29:58;;;;;;;48.22;23.70;;;7.60;99.90;;;;;;5012890;28;20127;-69
2020/12/21 06:32:31;;;;;;;49.05;22.85;;;7.60;99.90;;;;;;5006584;28;20058;-68
2020/12/21 06:34:58;;;;;;;44.50;21.77;;;7.60;99.90;;;;;;5009448;28;20054;-67
2020/12/21 06:37:25;;;;;;;40.42;21.02;;;7.60;99.90;;;;;;5006986;28;20363;-67
2020/12/21 06:40:05;;;;;;;43.47;20.95;;;7.60;99.90;;;;;;5008077;28;20092;-68
2020/12/21 06:42:32;;;;;;;41.08;19.40;;;7.60;99.90;;;;;;5015066;28;20042;-68
2020/12/21 06:44:59;;;;;;;41.33;20.17;;;7.60;99.90;;;;;;5007834;28;20046;-67
2020/12/21 06:47:26;;;;;;;39.10;18.42;;;7.70;99.90;;;;;;5010724;28;20061;-68
2020/12/21 06:49:53;;;;;;;33.72;17.75;;;7.70;99.90;;;;;;5012444;28;20077;-68
2020/12/21 06:52:20;;;;;;;32.15;16.85;;;7.70;99.90;;;;;;5011893;28;20050;-68
2020/12/21 06:54:52;;;;;;;35.50;17.25;;;7.70;99.90;;;;;;5011807;28;20409;-68
2020/12/21 06:57:18;;;;;;;38.35;17.65;;;7.70;99.90;;;;;;5010308;28;20077;-69
2020/12/21 06:59:44;;;;;;;32.08;17.25;;;7.70;99.90;;;;;;5007561;28;20045;-69
2020/12/21 07:02:14;;;;;;;34.13;18.38;;;7.70;99.90;;;;;;5013738;28;20049;-69
2020/12/21 07:04:41;;;;;;;34.22;17.17;;;7.70;99.90;;;;;;5009947;28;20056;-69
2020/12/21 07:07:07;;;;;;;30.55;16.73;;;7.70;99.90;;;;;;5013980;28;20050;-69
2020/12/21 07:09:36;;;;;;;32.45;16.67;;;7.60;99.90;;;;;;5008317;28;20049;-69
2020/12/21 07:12:07;;;;;;;29.85;16.90;;;7.70;99.90;;;;;;4994775;28;20062;-69
2020/12/21 07:14:38;;;;;;;31.02;17.27;;;7.70;99.90;;;;;;5014366;28;20100;-68
2020/12/21 07:17:12;;;;;;;33.45;16.65;;;7.70;99.90;;;;;;5008116;28;20537;-68
2020/12/21 07:19:42;;;;;;;35.03;18.13;;;7.70;99.90;;;;;;5007060;28;20074;-69
2020/12/21 07:22:10;;;;;;;38.22;17.73;;;7.70;99.90;;;;;;5008321;28;20060;-68
2020/12/21 07:24:38;;;;;;;35.60;19.35;;;7.80;99.90;;;;;;5009456;28;20111;-69
2020/12/21 07:27:05;;;;;;;34.83;18.45;;;7.80;99.90;;;;;;5010910;28;20624;-69
2020/12/21 07:29:33;;;;;;;34.10;18.48;;;7.90;99.90;;;;;;5014238;28;20049;-69
2020/12/21 07:31:59;;;;;;;33.92;18.73;;;7.90;99.90;;;;;;4989212;28;20116;-67
2020/12/21 07:34:27;;;;;;;36.95;17.98;;;7.90;99.90;;;;;;5009860;28;20173;-68
2020/12/21 07:36:55;;;;;;;38.00;17.90;;;8.00;99.90;;;;;;5011815;28;20092;-68
2020/12/21 07:39:21;;;;;;;39.08;19.35;;;8.10;99.90;;;;;;5004657;28;20442;-68
2020/12/21 07:41:52;;;;;;;38.72;19.67;;;8.10;99.90;;;;;;5002445;28;20046;-69
2020/12/21 07:44:31;;;;;;;38.08;18.30;;;8.10;99.90;;;;;;5008660;28;20128;-68
2020/12/21 07:47:02;;;;;;;35.05;17.42;;;8.20;99.90;;;;;;5007895;28;20054;-68
2020/12/21 07:49:31;;;;;;;32.33;17.05;;;8.20;99.90;;;;;;4991777;28;20101;-68
2020/12/21 07:52:00;;;;;;;40.93;17.27;;;8.30;99.90;;;;;;5010403;28;20484;-69
2020/12/21 07:54:32;;;;;;;28.73;16.10;;;8.20;99.90;;;;;;5004187;28;20306;-68
2020/12/21 07:56:59;;;;;;;30.13;14.70;;;8.30;99.90;;;;;;5013882;28;20442;-68
2020/12/21 07:59:26;;;;;;;28.70;14.43;;;8.30;99.90;;;;;;5008415;28;20089;-69
2020/12/21 08:02:01;;;;;;;27.23;13.82;;;8.30;99.90;;;;;;5010423;28;20076;-68
2020/12/21 08:04:28;;;;;;;22.67;13.75;;;8.40;99.90;;;;;;5011301;28;20046;-68
2020/12/21 08:07:07;;;;;;;25.35;12.77;;;8.40;99.90;;;;;;4996000;28;20050;-68
2020/12/21 08:09:37;;;;;;;23.85;13.32;;;8.40;99.90;;;;;;5006349;28;20054;-69
2020/12/21 08:12:08;;;;;;;23.50;12.57;;;8.40;99.90;;;;;;5008199;28;20458;-69
2020/12/21 08:14:34;;;;;;;21.50;11.27;;;8.50;99.90;;;;;;5007690;28;20560;-68
2020/12/21 08:17:14;;;;;;;22.98;11.50;;;8.50;99.90;;;;;;5011732;28;20529;-69
2020/12/21 08:19:46;;;;;;;16.90;9.05;;;8.50;99.90;;;;;;5006306;28;20061;-68
2020/12/21 08:22:12;;;;;;;17.88;10.18;;;8.50;99.90;;;;;;5011734;28;20050;-68
2020/12/21 08:24:39;;;;;;;17.42;10.10;;;8.50;99.90;;;;;;5004827;28;20050;-68
2020/12/21 08:27:06;;;;;;;18.90;9.73;;;8.50;99.90;;;;;;5011267;28;20050;-67
2020/12/21 08:29:32;;;;;;;20.60;9.60;;;8.50;99.90;;;;;;5009254;28;20072;-67
2020/12/21 08:31:59;;;;;;;14.68;8.90;;;8.50;99.90;;;;;;5010117;28;20069;-69
2020/12/21 08:34:25;;;;;;;16.45;9.55;;;8.60;99.90;;;;;;5006753;28;20058;-69
2020/12/21 08:36:51;;;;;;;16.73;9.45;;;8.60;99.90;;;;;;5005789;28;20054;-69
2020/12/21 08:39:20;;;;;;;17.75;10.13;;;8.60;99.90;;;;;;5003864;28;20073;-68
2020/12/21 08:41:59;;;;;;;17.35;9.90;;;8.60;99.90;;;;;;5009846;28;20370;-68
2020/12/21 08:44:27;;;;;;;20.92;10.20;;;8.60;99.90;;;;;;5010281;28;20532;-69
2020/12/21 08:46:58;;;;;;;22.38;10.57;;;8.60;99.90;;;;;;5007141;28;20096;-69
2020/12/21 08:49:27;;;;;;;19.58;10.60;;;8.60;99.90;;;;;;5005127;28;20541;-68
2020/12/21 08:52:00;;;;;;;19.98;10.50;;;8.60;99.90;;;;;;4995275;28;20046;-68
2020/12/21 08:54:27;;;;;;;22.75;11.45;;;8.60;99.90;;;;;;5007112;28;20049;-68
2020/12/21 08:56:53;;;;;;;21.65;11.48;;;8.50;99.90;;;;;;5007535;28;20058;-68
2020/12/21 08:59:20;;;;;;;17.67;10.07;;;8.50;99.90;;;;;;5008799;28;20042;-69
2020/12/21 09:01:46;;;;;;;19.52;11.77;;;8.60;99.90;;;;;;5005257;28;20764;-68
2020/12/21 09:04:12;;;;;;;22.20;11.30;;;8.50;99.90;;;;;;5012066;28;20559;-68
2020/12/21 09:06:39;;;;;;;19.90;11.63;;;8.50;99.90;;;;;;5007890;28;20428;-68
2020/12/21 09:09:06;;;;;;;17.38;10.48;;;8.60;99.90;;;;;;5002384;28;20097;-68
2020/12/21 09:11:33;;;;;;;19.17;10.10;;;8.50;99.90;;;;;;5002484;28;20054;-68
2020/12/21 09:14:00;;;;;;;21.25;10.38;;;8.50;99.90;;;;;;5001999;28;20072;-68
2020/12/21 09:16:29;;;;;;;21.33;10.65;;;8.60;99.90;;;;;;5007175;28;20049;-68
2020/12/21 09:18:56;;;;;;;21.35;11.70;;;8.60;99.90;;;;;;5006963;28;20046;-67
2020/12/21 09:21:25;;;;;;;22.17;11.18;;;8.60;99.90;;;;;;5007753;28;20116;-68
2020/12/21 09:23:53;;;;;;;22.15;11.10;;;8.60;99.90;;;;;;5003526;28;20465;-68
2020/12/21 09:26:20;;;;;;;20.63;10.88;;;8.70;99.90;;;;;;5004817;28;20046;-68
2020/12/21 09:28:48;;;;;;;21.73;10.70;;;8.80;99.90;;;;;;5008324;28;20081;-68
2020/12/21 09:31:15;;;;;;;27.67;12.15;;;8.80;99.90;;;;;;5010592;28;20077;-67
2020/12/21 09:33:48;;;;;;;19.15;10.18;;;8.90;99.90;;;;;;5004652;28;20528;-68
2020/12/21 09:36:15;;;;;;;19.23;9.70;;;8.80;99.90;;;;;;5005928;28;20097;-68
2020/12/21 09:38:43;;;;;;;16.42;8.82;;;8.90;99.90;;;;;;5004971;28;20137;-68
2020/12/21 09:41:15;;;;;;;18.58;9.63;;;8.90;99.90;;;;;;5004035;28;20042;-73
2020/12/21 09:43:43;;;;;;;15.90;8.60;;;9.00;99.90;;;;;;5001834;28;20136;-69
2020/12/21 09:46:21;;;;;;;18.48;9.18;;;9.00;99.90;;;;;;4988230;28;20077;-69
2020/12/21 09:48:48;;;;;;;16.33;8.63;;;9.10;99.90;;;;;;4987632;28;20100;-69
2020/12/21 09:51:15;;;;;;;15.65;8.75;;;9.00;99.90;;;;;;4972393;28;20176;-70
2020/12/21 09:53:42;;;;;;;13.45;7.38;;;9.00;99.90;;;;;;4985940;28;20847;-69
2020/12/21 09:56:10;;;;;;;13.35;7.60;;;9.00;99.90;;;;;;4988841;28;20518;-69
2020/12/21 09:58:36;;;;;;;13.35;7.38;;;9.00;99.90;;;;;;4979933;28;20058;-68
2020/12/21 10:01:06;;;;;;;17.23;8.50;;;9.00;99.90;;;;;;4988166;28;20133;-70
2020/12/21 10:03:32;;;;;;;15.88;7.80;;;8.90;99.90;;;;;;4985802;28;20046;-70
2020/12/21 10:05:59;;;;;;;14.27;7.95;;;8.90;99.90;;;;;;4972524;28;20054;-70
2020/12/21 10:08:25;;;;;;;12.63;7.40;;;9.00;99.90;;;;;;4986421;28;20058;-70
2020/12/21 10:10:52;;;;;;;11.90;7.28;;;9.00;99.90;;;;;;4987635;28;20050;-69
2020/12/21 10:13:19;;;;;;;11.57;7.00;;;9.00;99.90;;;;;;4989875;28;20588;-70
2020/12/21 10:15:45;;;;;;;11.57;6.80;;;9.10;99.90;;;;;;4989862;28;20070;-71
2020/12/21 10:18:11;;;;;;;11.98;6.57;;;9.10;99.90;;;;;;4990245;28;20543;-69
2020/12/21 10:20:38;;;;;;;13.32;7.03;;;9.10;99.90;;;;;;4989678;28;20054;-69
2020/12/21 10:23:04;;;;;;;13.32;6.40;;;9.10;99.90;;;;;;4987732;28;20108;-69
2020/12/21 10:25:31;;;;;;;12.23;6.60;;;9.10;99.90;;;;;;4990155;28;20098;-69
2020/12/21 10:27:57;;;;;;;11.27;6.15;;;9.10;99.90;;;;;;4988265;28;20086;-69
2020/12/21 10:30:23;;;;;;;11.95;6.32;;;9.10;99.90;;;;;;4988533;28;20085;-69
2020/12/21 10:32:49;;;;;;;10.35;5.82;;;9.20;99.90;;;;;;4988874;28;20069;-72
2020/12/21 10:35:16;;;;;;;13.18;5.93;;;9.30;99.90;;;;;;4990206;28;20136;-74
2020/12/21 10:37:42;;;;;;;9.40;5.65;;;9.30;99.90;;;;;;4986287;28;20053;-69
2020/12/21 10:40:08;;;;;;;12.35;6.45;;;9.20;99.90;;;;;;4989128;28;20057;-70
2020/12/21 10:42:35;;;;;;;10.88;5.95;;;9.30;99.90;;;;;;4986647;28;20090;-68
2020/12/21 10:45:01;;;;;;;12.13;5.40;;;9.30;99.90;;;;;;4970979;28;20482;-68
2020/12/21 10:47:30;;;;;;;10.52;5.70;;;9.40;99.90;;;;;;4986627;28;20046;-69
2020/12/21 10:49:56;;;;;;;8.68;5.55;;;9.40;99.90;;;;;;4972878;28;20430;-68
2020/12/21 10:52:25;;;;;;;14.48;6.30;;;9.40;99.90;;;;;;4987372;28;20105;-69
2020/12/21 10:54:51;;;;;;;9.07;5.40;;;9.40;99.90;;;;;;4971714;28;20065;-69
2020/12/21 10:57:17;;;;;;;10.23;5.55;;;9.30;99.90;;;;;;4989760;28;20093;-68
2020/12/21 10:59:44;;;;;;;8.63;4.88;;;9.50;99.90;;;;;;4987863;28;20776;-69
2020/12/21 11:02:10;;;;;;;8.25;5.00;;;9.40;99.90;;;;;;4987626;28;20046;-68
2020/12/21 11:04:37;;;;;;;10.07;4.95;;;9.50;99.90;;;;;;4988326;28;20129;-70
2020/12/21 11:07:04;;;;;;;10.85;5.10;;;9.60;99.90;;;;;;4986947;28;20126;-69
2020/12/21 11:09:30;;;;;;;12.43;5.32;;;9.70;99.90;;;;;;4991722;28;20050;-68
2020/12/21 11:11:57;;;;;;;7.93;5.00;;;9.60;99.90;;;;;;4993297;28;20077;-69
2020/12/21 11:14:23;;;;;;;10.88;5.80;;;9.70;99.90;;;;;;4994399;28;20105;-69
2020/12/21 11:16:54;;;;;;;7.30;4.38;;;9.80;99.90;;;;;;4989814;28;20085;-69
2020/12/21 11:19:20;;;;;;;8.10;4.35;;;9.60;99.90;;;;;;4991067;28;20611;-69
2020/12/21 11:21:46;;;;;;;10.88;4.63;;;9.70;99.90;;;;;;4991113;28;20551;-70
2020/12/21 11:24:12;;;;;;;7.75;4.90;;;9.80;99.90;;;;;;4993443;28;20137;-69
2020/12/21 11:26:39;;;;;;;8.73;4.68;;;9.90;99.90;;;;;;4990067;28;20481;-69
2020/12/21 11:29:05;;;;;;;10.25;5.07;;;9.90;99.90;;;;;;4991732;28;20112;-69
2020/12/21 11:31:33;;;;;;;11.73;4.70;;;9.80;99.90;;;;;;4991807;28;20060;-70
2020/12/21 11:34:00;;;;;;;11.52;5.13;;;9.80;99.90;;;;;;4990313;28;20462;-69
2020/12/21 11:36:26;;;;;;;8.27;4.68;;;9.90;99.90;;;;;;4990796;28;20704;-69
2020/12/21 11:38:53;;;;;;;9.05;4.80;;;9.80;99.90;;;;;;4991441;28;20050;-68
2020/12/21 11:41:19;;;;;;;8.88;5.10;;;9.90;99.90;;;;;;4990756;28;20062;-70
2020/12/21 11:43:45;;;;;;;8.32;5.13;;;9.90;99.90;;;;;;4991263;28;20125;-69
2020/12/21 11:46:13;;;;;;;8.35;5.15;;;9.90;99.90;;;;;;4989152;28;20065;-69
2020/12/21 11:48:39;;;;;;;8.98;5.15;;;9.70;99.90;;;;;;4990292;28;20054;-69
2020/12/21 11:51:06;;;;;;;14.15;5.35;;;9.70;99.90;;;;;;4991355;28;20060;-70
2020/12/21 11:53:32;;;;;;;10.10;4.85;;;9.80;99.90;;;;;;4995462;28;20497;-69
2020/12/21 11:56:00;;;;;;;10.68;5.40;;;9.70;99.90;;;;;;4990610;28;20049;-69
2020/12/21 11:58:26;;;;;;;7.88;4.70;;;9.80;99.90;;;;;;4992905;28;20045;-70
2020/12/21 12:00:52;;;;;;;8.70;5.00;;;9.90;99.90;;;;;;4988934;28;20109;-69
2020/12/21 12:03:19;;;;;;;14.57;5.65;;;10.00;99.90;;;;;;4990080;28;20054;-69
2020/12/21 12:05:45;;;;;;;8.75;5.28;;;10.10;99.90;;;;;;4989873;28;20113;-70
2020/12/21 12:08:12;;;;;;;13.65;5.30;;;10.10;99.90;;;;;;4974229;28;20140;-68
2020/12/21 12:10:45;;;;;;;7.60;5.38;;;10.00;99.90;;;;;;4990001;28;20129;-69
2020/12/21 12:13:11;;;;;;;9.35;5.47;;;10.10;99.90;;;;;;4993501;28;20576;-69
2020/12/21 12:15:37;;;;;;;11.15;5.15;;;10.10;99.90;;;;;;4987312;28;20163;-68
2020/12/21 12:18:05;;;;;;;9.77;5.82;;;10.10;99.90;;;;;;4989500;28;20046;-69
2020/12/21 12:20:31;;;;;;;11.85;5.60;;;10.00;99.90;;;;;;4988902;28;20054;-69
2020/12/21 12:22:57;;;;;;;13.27;5.65;;;9.90;99.90;;;;;;4988545;28;20124;-68
2020/12/21 12:25:24;;;;;;;9.57;5.32;;;9.70;99.90;;;;;;4991340;28;20054;-68
2020/12/21 12:27:50;;;;;;;10.73;5.60;;;9.70;99.90;;;;;;4989426;28;20105;-70
2020/12/21 12:30:16;;;;;;;13.75;5.07;;;9.70;99.90;;;;;;4988638;28;20405;-70
2020/12/21 12:32:43;;;;;;;9.05;5.30;;;9.70;99.90;;;;;;4990704;28;20085;-71
2020/12/21 12:35:09;;;;;;;8.02;5.28;;;9.70;99.90;;;;;;4989411;28;20069;-69
2020/12/21 12:37:35;;;;;;;11.40;6.05;;;9.80;99.90;;;;;;4993845;28;20046;-71
2020/12/21 12:40:03;;;;;;;11.32;5.90;;;9.90;99.90;;;;;;4990413;28;20057;-71
2020/12/21 12:42:29;;;;;;;8.82;5.47;;;9.90;99.90;;;;;;4987822;28;20045;-71
2020/12/21 12:44:56;;;;;;;9.88;5.20;;;10.00;99.90;;;;;;4986983;28;20167;-72